sensor_id;sensor_type;location;lat;lon;timestamp;P1;durP1;ratioP1;P2;durP2;ratioP2
11141;SDS011;5625;50.122;19.864;2023-04-01T00:00:53;3.50;;;2.10;;
11141;SDS011;5625;50.122;19.864;2023-04-01T00:03:22;3.23;;;2.20;;
11141;SDS011;5625;50.122;19.864;2023-04-01T00:05:52;2.73;;;2.43;;
11141;SDS011;5625;50.122;19.864;2023-04-01T00:08:20;2.57;;;1.90;;
11141;SDS011;5625;50.122;19.864;2023-04-01T00:10:48;3.67;;;2.10;;
11141;SDS011;5625;50.122;19.864;2023-04-01T00:13:17;2.03;;;1.83;;
11141;SDS011;5625;50.122;19.864;2023-04-01T00:15:47;2.63;;;2.07;;
11141;SDS011;5625;50.122;19.864;2023-04-01T00:18:15;3.17;;;2.00;;
11141;SDS011;5625;50.122;19.864;2023-04-01T00:20:43;2.97;;;1.80;;
11141;SDS011;5625;50.122;19.864;2023-04-01T00:23:13;3.37;;;1.97;;
11141;SDS011;5625;50.122;19.864;2023-04-01T00:25:45;3.93;;;2.27;;
11141;SDS011;5625;50.122;19.864;2023-04-01T00:28:14;3.17;;;2.10;;
11141;SDS011;5625;50.122;19.864;2023-04-01T00:30:42;2.07;;;1.73;;
11141;SDS011;5625;50.122;19.864;2023-04-01T00:33:12;2.40;;;2.00;;
11141;SDS011;5625;50.122;19.864;2023-04-01T00:35:42;3.43;;;2.00;;
11141;SDS011;5625;50.122;19.864;2023-04-01T00:38:10;2.40;;;1.80;;
11141;SDS011;5625;50.122;19.864;2023-04-01T00:40:40;2.20;;;2.00;;
11141;SDS011;5625;50.122;19.864;2023-04-01T00:43:10;2.10;;;1.90;;
11141;SDS011;5625;50.122;19.864;2023-04-01T00:45:42;2.27;;;1.70;;
11141;SDS011;5625;50.122;19.864;2023-04-01T00:48:14;1.87;;;1.53;;
11141;SDS011;5625;50.122;19.864;2023-04-01T00:50:44;2.97;;;2.00;;
11141;SDS011;5625;50.122;19.864;2023-04-01T00:53:16;2.57;;;2.07;;
11141;SDS011;5625;50.122;19.864;2023-04-01T00:55:54;3.50;;;2.13;;
11141;SDS011;5625;50.122;19.864;2023-04-01T00:58:29;2.80;;;1.80;;
11141;SDS011;5625;50.122;19.864;2023-04-01T01:01:00;3.77;;;2.30;;
11141;SDS011;5625;50.122;19.864;2023-04-01T01:03:29;3.10;;;2.20;;
11141;SDS011;5625;50.122;19.864;2023-04-01T01:06:07;3.03;;;2.10;;
11141;SDS011;5625;50.122;19.864;2023-04-01T01:08:52;3.57;;;2.27;;
11141;SDS011;5625;50.122;19.864;2023-04-01T01:11:35;3.57;;;2.60;;
11141;SDS011;5625;50.122;19.864;2023-04-01T01:14:11;4.33;;;2.27;;
11141;SDS011;5625;50.122;19.864;2023-04-01T01:16:51;4.13;;;2.50;;
11141;SDS011;5625;50.122;19.864;2023-04-01T01:19:33;3.40;;;2.13;;
11141;SDS011;5625;50.122;19.864;2023-04-01T01:22:22;2.67;;;2.33;;
11141;SDS011;5625;50.122;19.864;2023-04-01T01:25:25;3.80;;;2.63;;
11141;SDS011;5625;50.122;19.864;2023-04-01T01:28:03;3.70;;;2.30;;
11141;SDS011;5625;50.122;19.864;2023-04-01T01:30:51;5.60;;;2.43;;
11141;SDS011;5625;50.122;19.864;2023-04-01T01:33:44;2.83;;;2.40;;
11141;SDS011;5625;50.122;19.864;2023-04-01T01:36:22;3.83;;;3.03;;
11141;SDS011;5625;50.122;19.864;2023-04-01T01:38:54;3.40;;;2.60;;
11141;SDS011;5625;50.122;19.864;2023-04-01T01:41:23;4.27;;;2.83;;
11141;SDS011;5625;50.122;19.864;2023-04-01T01:43:53;3.13;;;2.80;;
11141;SDS011;5625;50.122;19.864;2023-04-01T01:46:24;4.53;;;2.60;;
11141;SDS011;5625;50.122;19.864;2023-04-01T01:48:54;2.73;;;2.40;;
11141;SDS011;5625;50.122;19.864;2023-04-01T01:51:25;3.70;;;2.47;;
11141;SDS011;5625;50.122;19.864;2023-04-01T01:53:54;5.27;;;2.80;;
11141;SDS011;5625;50.122;19.864;2023-04-01T01:56:23;3.37;;;2.70;;
11141;SDS011;5625;50.122;19.864;2023-04-01T01:58:55;3.67;;;2.80;;
11141;SDS011;5625;50.122;19.864;2023-04-01T02:01:27;3.70;;;2.37;;
11141;SDS011;5625;50.122;19.864;2023-04-01T02:03:57;2.60;;;2.37;;
11141;SDS011;5625;50.122;19.864;2023-04-01T02:06:28;2.63;;;2.43;;
11141;SDS011;5625;50.122;19.864;2023-04-01T02:09:00;4.73;;;2.63;;
11141;SDS011;5625;50.122;19.864;2023-04-01T02:11:30;3.43;;;2.37;;
11141;SDS011;5625;50.122;19.864;2023-04-01T02:14:03;3.43;;;2.70;;
11141;SDS011;5625;50.122;19.864;2023-04-01T02:16:34;3.30;;;2.50;;
11141;SDS011;5625;50.122;19.864;2023-04-01T02:19:07;4.63;;;2.80;;
11141;SDS011;5625;50.122;19.864;2023-04-01T02:21:40;4.20;;;2.40;;
11141;SDS011;5625;50.122;19.864;2023-04-01T02:24:10;4.97;;;2.50;;
11141;SDS011;5625;50.122;19.864;2023-04-01T02:26:41;3.67;;;2.67;;
11141;SDS011;5625;50.122;19.864;2023-04-01T02:29:10;2.80;;;2.20;;
11141;SDS011;5625;50.122;19.864;2023-04-01T02:31:39;4.93;;;2.77;;
11141;SDS011;5625;50.122;19.864;2023-04-01T02:34:09;3.00;;;2.40;;
11141;SDS011;5625;50.122;19.864;2023-04-01T02:36:37;2.80;;;2.50;;
11141;SDS011;5625;50.122;19.864;2023-04-01T02:39:08;4.23;;;2.90;;
11141;SDS011;5625;50.122;19.864;2023-04-01T02:41:40;3.03;;;2.70;;
11141;SDS011;5625;50.122;19.864;2023-04-01T02:44:09;2.83;;;2.53;;
11141;SDS011;5625;50.122;19.864;2023-04-01T02:46:38;3.43;;;2.67;;
11141;SDS011;5625;50.122;19.864;2023-04-01T02:49:07;2.60;;;2.40;;
11141;SDS011;5625;50.122;19.864;2023-04-01T02:51:35;3.70;;;2.87;;
11141;SDS011;5625;50.122;19.864;2023-04-01T02:54:03;4.03;;;2.63;;
11141;SDS011;5625;50.122;19.864;2023-04-01T02:56:32;4.83;;;3.00;;
11141;SDS011;5625;50.122;19.864;2023-04-01T02:59:00;4.70;;;2.90;;
11141;SDS011;5625;50.122;19.864;2023-04-01T03:01:28;3.57;;;2.83;;
11141;SDS011;5625;50.122;19.864;2023-04-01T03:03:56;5.63;;;2.77;;
11141;SDS011;5625;50.122;19.864;2023-04-01T03:06:24;3.13;;;2.83;;
11141;SDS011;5625;50.122;19.864;2023-04-01T03:08:53;5.83;;;3.23;;
11141;SDS011;5625;50.122;19.864;2023-04-01T03:11:21;3.73;;;2.90;;
11141;SDS011;5625;50.122;19.864;2023-04-01T03:13:50;4.27;;;2.90;;
11141;SDS011;5625;50.122;19.864;2023-04-01T03:16:18;3.80;;;2.90;;
11141;SDS011;5625;50.122;19.864;2023-04-01T03:18:46;4.10;;;3.33;;
11141;SDS011;5625;50.122;19.864;2023-04-01T03:21:16;3.63;;;2.70;;
11141;SDS011;5625;50.122;19.864;2023-04-01T03:23:46;4.03;;;2.93;;
11141;SDS011;5625;50.122;19.864;2023-04-01T03:26:14;3.23;;;2.77;;
11141;SDS011;5625;50.122;19.864;2023-04-01T03:28:43;4.20;;;2.87;;
11141;SDS011;5625;50.122;19.864;2023-04-01T03:31:12;6.37;;;3.07;;
11141;SDS011;5625;50.122;19.864;2023-04-01T03:33:42;3.83;;;2.80;;
11141;SDS011;5625;50.122;19.864;2023-04-01T03:36:10;4.17;;;3.30;;
11141;SDS011;5625;50.122;19.864;2023-04-01T03:38:41;4.13;;;3.10;;
11141;SDS011;5625;50.122;19.864;2023-04-01T03:41:11;4.97;;;3.20;;
11141;SDS011;5625;50.122;19.864;2023-04-01T03:43:40;4.27;;;2.93;;
11141;SDS011;5625;50.122;19.864;2023-04-01T03:46:08;3.13;;;2.70;;
11141;SDS011;5625;50.122;19.864;2023-04-01T03:48:38;4.13;;;3.03;;
11141;SDS011;5625;50.122;19.864;2023-04-01T03:51:06;4.90;;;2.67;;
11141;SDS011;5625;50.122;19.864;2023-04-01T03:53:34;2.60;;;2.40;;
11141;SDS011;5625;50.122;19.864;2023-04-01T03:56:03;3.60;;;2.47;;
11141;SDS011;5625;50.122;19.864;2023-04-01T03:58:32;3.20;;;2.60;;
11141;SDS011;5625;50.122;19.864;2023-04-01T04:01:00;4.43;;;2.70;;
11141;SDS011;5625;50.122;19.864;2023-04-01T04:03:28;2.90;;;2.20;;
11141;SDS011;5625;50.122;19.864;2023-04-01T04:05:58;2.80;;;2.37;;
11141;SDS011;5625;50.122;19.864;2023-04-01T04:08:26;3.60;;;2.50;;
11141;SDS011;5625;50.122;19.864;2023-04-01T04:10:54;2.47;;;2.27;;
11141;SDS011;5625;50.122;19.864;2023-04-01T04:13:23;5.77;;;2.87;;
11141;SDS011;5625;50.122;19.864;2023-04-01T04:15:51;4.90;;;3.10;;
11141;SDS011;5625;50.122;19.864;2023-04-01T04:18:19;3.20;;;2.90;;
11141;SDS011;5625;50.122;19.864;2023-04-01T04:20:47;4.87;;;2.80;;
11141;SDS011;5625;50.122;19.864;2023-04-01T04:23:18;3.37;;;2.67;;
11141;SDS011;5625;50.122;19.864;2023-04-01T04:25:53;3.77;;;3.00;;
11141;SDS011;5625;50.122;19.864;2023-04-01T04:28:22;4.53;;;2.70;;
11141;SDS011;5625;50.122;19.864;2023-04-01T04:30:51;4.83;;;3.37;;
11141;SDS011;5625;50.122;19.864;2023-04-01T04:33:20;4.03;;;3.07;;
11141;SDS011;5625;50.122;19.864;2023-04-01T04:35:48;4.10;;;2.90;;
11141;SDS011;5625;50.122;19.864;2023-04-01T04:38:18;3.80;;;2.70;;
11141;SDS011;5625;50.122;19.864;2023-04-01T04:40:46;4.17;;;3.10;;
11141;SDS011;5625;50.122;19.864;2023-04-01T04:43:15;4.23;;;3.07;;
11141;SDS011;5625;50.122;19.864;2023-04-01T04:45:44;5.77;;;3.60;;
11141;SDS011;5625;50.122;19.864;2023-04-01T04:48:14;4.33;;;3.07;;
11141;SDS011;5625;50.122;19.864;2023-04-01T04:50:45;4.00;;;3.00;;
11141;SDS011;5625;50.122;19.864;2023-04-01T04:53:14;4.27;;;3.00;;
11141;SDS011;5625;50.122;19.864;2023-04-01T04:55:44;4.27;;;3.10;;
11141;SDS011;5625;50.122;19.864;2023-04-01T04:58:12;3.30;;;3.00;;
11141;SDS011;5625;50.122;19.864;2023-04-01T05:00:41;4.63;;;3.10;;
11141;SDS011;5625;50.122;19.864;2023-04-01T05:03:09;3.93;;;3.00;;
11141;SDS011;5625;50.122;19.864;2023-04-01T05:05:37;5.33;;;2.90;;
11141;SDS011;5625;50.122;19.864;2023-04-01T05:08:08;4.27;;;2.80;;
11141;SDS011;5625;50.122;19.864;2023-04-01T05:10:36;6.03;;;3.23;;
11141;SDS011;5625;50.122;19.864;2023-04-01T05:13:06;4.20;;;2.80;;
11141;SDS011;5625;50.122;19.864;2023-04-01T05:15:34;4.93;;;2.77;;
11141;SDS011;5625;50.122;19.864;2023-04-01T05:18:03;3.63;;;2.40;;
11141;SDS011;5625;50.122;19.864;2023-04-01T05:20:31;5.23;;;2.50;;
11141;SDS011;5625;50.122;19.864;2023-04-01T05:22:59;3.37;;;2.60;;
11141;SDS011;5625;50.122;19.864;2023-04-01T05:25:27;4.87;;;2.37;;
11141;SDS011;5625;50.122;19.864;2023-04-01T05:27:56;4.03;;;2.47;;
11141;SDS011;5625;50.122;19.864;2023-04-01T05:30:25;2.90;;;2.27;;
11141;SDS011;5625;50.122;19.864;2023-04-01T05:32:53;4.40;;;2.70;;
11141;SDS011;5625;50.122;19.864;2023-04-01T05:35:22;3.53;;;2.50;;
11141;SDS011;5625;50.122;19.864;2023-04-01T05:37:51;4.70;;;2.63;;
11141;SDS011;5625;50.122;19.864;2023-04-01T05:40:22;3.93;;;2.57;;
11141;SDS011;5625;50.122;19.864;2023-04-01T05:42:50;4.33;;;2.47;;
11141;SDS011;5625;50.122;19.864;2023-04-01T05:45:18;4.63;;;2.67;;
11141;SDS011;5625;50.122;19.864;2023-04-01T05:47:51;4.07;;;2.50;;
11141;SDS011;5625;50.122;19.864;2023-04-01T05:50:22;4.07;;;2.20;;
11141;SDS011;5625;50.122;19.864;2023-04-01T05:52:50;3.30;;;2.13;;
11141;SDS011;5625;50.122;19.864;2023-04-01T05:55:18;3.27;;;2.00;;
11141;SDS011;5625;50.122;19.864;2023-04-01T05:57:46;3.50;;;2.10;;
11141;SDS011;5625;50.122;19.864;2023-04-01T06:00:16;3.93;;;2.60;;
11141;SDS011;5625;50.122;19.864;2023-04-01T06:02:46;4.73;;;2.20;;
11141;SDS011;5625;50.122;19.864;2023-04-01T06:05:17;5.37;;;2.37;;
11141;SDS011;5625;50.122;19.864;2023-04-01T06:07:48;4.07;;;2.60;;
11141;SDS011;5625;50.122;19.864;2023-04-01T06:10:18;3.87;;;2.20;;
11141;SDS011;5625;50.122;19.864;2023-04-01T06:12:54;4.60;;;2.37;;
11141;SDS011;5625;50.122;19.864;2023-04-01T06:15:33;4.23;;;2.00;;
11141;SDS011;5625;50.122;19.864;2023-04-01T06:21:18;4.80;;;2.03;;
11141;SDS011;5625;50.122;19.864;2023-04-01T06:24:13;4.17;;;2.23;;
11141;SDS011;5625;50.122;19.864;2023-04-01T06:26:51;5.37;;;2.03;;
11141;SDS011;5625;50.122;19.864;2023-04-01T06:29:41;3.53;;;2.20;;
11141;SDS011;5625;50.122;19.864;2023-04-01T06:32:30;7.93;;;2.60;;
11141;SDS011;5625;50.122;19.864;2023-04-01T06:35:17;3.80;;;2.57;;
11141;SDS011;5625;50.122;19.864;2023-04-01T06:38:10;3.03;;;1.90;;
11141;SDS011;5625;50.122;19.864;2023-04-01T06:43:59;5.07;;;2.20;;
11141;SDS011;5625;50.122;19.864;2023-04-01T06:46:41;2.80;;;2.07;;
11141;SDS011;5625;50.122;19.864;2023-04-01T06:49:20;2.53;;;2.20;;
11141;SDS011;5625;50.122;19.864;2023-04-01T06:52:04;4.37;;;2.20;;
11141;SDS011;5625;50.122;19.864;2023-04-01T06:54:45;3.20;;;1.97;;
11141;SDS011;5625;50.122;19.864;2023-04-01T06:57:19;4.63;;;2.63;;
11141;SDS011;5625;50.122;19.864;2023-04-01T06:59:54;4.33;;;2.40;;
11141;SDS011;5625;50.122;19.864;2023-04-01T07:02:25;5.03;;;2.10;;
11141;SDS011;5625;50.122;19.864;2023-04-01T07:04:59;4.17;;;1.90;;
11141;SDS011;5625;50.122;19.864;2023-04-01T07:07:30;3.20;;;2.17;;
11141;SDS011;5625;50.122;19.864;2023-04-01T07:10:05;4.40;;;2.10;;
11141;SDS011;5625;50.122;19.864;2023-04-01T07:12:42;2.70;;;2.10;;
11141;SDS011;5625;50.122;19.864;2023-04-01T07:15:17;5.10;;;2.20;;
11141;SDS011;5625;50.122;19.864;2023-04-01T07:17:50;3.83;;;1.90;;
11141;SDS011;5625;50.122;19.864;2023-04-01T07:20:23;3.77;;;2.30;;
11141;SDS011;5625;50.122;19.864;2023-04-01T07:22:55;4.70;;;2.50;;
11141;SDS011;5625;50.122;19.864;2023-04-01T07:25:27;5.33;;;2.70;;
11141;SDS011;5625;50.122;19.864;2023-04-01T07:28:00;2.73;;;2.17;;
11141;SDS011;5625;50.122;19.864;2023-04-01T07:30:32;5.13;;;2.30;;
11141;SDS011;5625;50.122;19.864;2023-04-01T07:33:11;4.27;;;2.20;;
11141;SDS011;5625;50.122;19.864;2023-04-01T07:35:43;3.27;;;2.37;;
11141;SDS011;5625;50.122;19.864;2023-04-01T07:38:21;3.77;;;2.33;;
11141;SDS011;5625;50.122;19.864;2023-04-01T07:41:04;4.23;;;2.20;;
11141;SDS011;5625;50.122;19.864;2023-04-01T07:43:44;5.90;;;2.10;;
11141;SDS011;5625;50.122;19.864;2023-04-01T07:46:25;3.73;;;2.33;;
11141;SDS011;5625;50.122;19.864;2023-04-01T07:49:16;3.80;;;2.30;;
11141;SDS011;5625;50.122;19.864;2023-04-01T07:51:50;4.63;;;2.40;;
11141;SDS011;5625;50.122;19.864;2023-04-01T07:54:28;5.17;;;2.10;;
11141;SDS011;5625;50.122;19.864;2023-04-01T07:57:05;4.10;;;1.97;;
11141;SDS011;5625;50.122;19.864;2023-04-01T07:59:40;3.27;;;2.30;;
11141;SDS011;5625;50.122;19.864;2023-04-01T08:02:21;4.30;;;2.27;;
11141;SDS011;5625;50.122;19.864;2023-04-01T08:05:00;5.17;;;2.10;;
11141;SDS011;5625;50.122;19.864;2023-04-01T08:07:40;3.03;;;1.97;;
11141;SDS011;5625;50.122;19.864;2023-04-01T08:10:17;6.27;;;2.43;;
11141;SDS011;5625;50.122;19.864;2023-04-01T08:12:56;2.20;;;1.70;;
11141;SDS011;5625;50.122;19.864;2023-04-01T08:15:34;3.27;;;2.23;;
11141;SDS011;5625;50.122;19.864;2023-04-01T08:18:13;3.33;;;1.97;;
11141;SDS011;5625;50.122;19.864;2023-04-01T08:20:50;2.60;;;1.90;;
11141;SDS011;5625;50.122;19.864;2023-04-01T08:23:21;4.03;;;2.33;;
11141;SDS011;5625;50.122;19.864;2023-04-01T08:25:53;4.20;;;1.77;;
11141;SDS011;5625;50.122;19.864;2023-04-01T08:28:29;3.77;;;2.00;;
11141;SDS011;5625;50.122;19.864;2023-04-01T08:31:03;2.53;;;1.60;;
11141;SDS011;5625;50.122;19.864;2023-04-01T08:33:34;4.47;;;1.87;;
11141;SDS011;5625;50.122;19.864;2023-04-01T08:36:05;2.70;;;1.60;;
11141;SDS011;5625;50.122;19.864;2023-04-01T08:38:37;3.70;;;1.97;;
11141;SDS011;5625;50.122;19.864;2023-04-01T08:41:12;4.20;;;1.80;;
11141;SDS011;5625;50.122;19.864;2023-04-01T08:44:07;3.43;;;1.73;;
11141;SDS011;5625;50.122;19.864;2023-04-01T08:47:07;1.83;;;1.67;;
11141;SDS011;5625;50.122;19.864;2023-04-01T08:53:27;3.67;;;1.60;;
11141;SDS011;5625;50.122;19.864;2023-04-01T08:56:12;2.80;;;1.70;;
11141;SDS011;5625;50.122;19.864;2023-04-01T08:58:55;1.53;;;1.40;;
11141;SDS011;5625;50.122;19.864;2023-04-01T09:04:47;2.70;;;2.00;;
11141;SDS011;5625;50.122;19.864;2023-04-01T09:07:33;3.10;;;1.93;;
11141;SDS011;5625;50.122;19.864;2023-04-01T09:13:20;2.83;;;1.80;;
11141;SDS011;5625;50.122;19.864;2023-04-01T09:19:14;1.70;;;1.57;;
11141;SDS011;5625;50.122;19.864;2023-04-01T09:21:51;2.43;;;1.70;;
11141;SDS011;5625;50.122;19.864;2023-04-01T09:27:51;2.23;;;1.80;;
11141;SDS011;5625;50.122;19.864;2023-04-01T09:30:31;2.33;;;1.83;;
11141;SDS011;5625;50.122;19.864;2023-04-01T09:36:28;3.87;;;2.27;;
11141;SDS011;5625;50.122;19.864;2023-04-01T09:39:15;4.10;;;2.27;;
11141;SDS011;5625;50.122;19.864;2023-04-01T09:42:21;2.27;;;1.73;;
11141;SDS011;5625;50.122;19.864;2023-04-01T09:45:07;2.77;;;2.40;;
11141;SDS011;5625;50.122;19.864;2023-04-01T09:47:47;4.23;;;1.93;;
11141;SDS011;5625;50.122;19.864;2023-04-01T09:50:33;4.37;;;2.40;;
11141;SDS011;5625;50.122;19.864;2023-04-01T09:53:22;3.87;;;2.40;;
11141;SDS011;5625;50.122;19.864;2023-04-01T09:56:09;3.30;;;3.00;;
11141;SDS011;5625;50.122;19.864;2023-04-01T10:02:14;5.17;;;3.10;;
11141;SDS011;5625;50.122;19.864;2023-04-01T10:08:19;6.03;;;3.50;;
11141;SDS011;5625;50.122;19.864;2023-04-01T10:11:03;4.00;;;3.00;;
11141;SDS011;5625;50.122;19.864;2023-04-01T10:17:16;3.60;;;2.30;;
11141;SDS011;5625;50.122;19.864;2023-04-01T10:29:23;2.30;;;1.10;;
11141;SDS011;5625;50.122;19.864;2023-04-01T10:35:14;2.00;;;1.30;;
11141;SDS011;5625;50.122;19.864;2023-04-01T10:38:15;1.30;;;1.20;;
11141;SDS011;5625;50.122;19.864;2023-04-01T10:44:11;1.50;;;1.30;;
11141;SDS011;5625;50.122;19.864;2023-04-01T10:47:08;2.47;;;1.60;;
11141;SDS011;5625;50.122;19.864;2023-04-01T10:50:13;2.30;;;1.90;;
11141;SDS011;5625;50.122;19.864;2023-04-01T10:52:57;2.10;;;1.90;;
11141;SDS011;5625;50.122;19.864;2023-04-01T11:02:03;2.40;;;2.20;;
11141;SDS011;5625;50.122;19.864;2023-04-01T11:05:03;2.47;;;2.27;;
11141;SDS011;5625;50.122;19.864;2023-04-01T11:17:48;2.00;;;1.80;;
11141;SDS011;5625;50.122;19.864;2023-04-01T11:23:49;2.60;;;1.77;;
11141;SDS011;5625;50.122;19.864;2023-04-01T11:26:35;2.10;;;1.90;;
11141;SDS011;5625;50.122;19.864;2023-04-01T11:29:33;2.13;;;1.90;;
11141;SDS011;5625;50.122;19.864;2023-04-01T11:32:29;1.90;;;1.80;;
11141;SDS011;5625;50.122;19.864;2023-04-01T11:35:20;2.40;;;2.20;;
11141;SDS011;5625;50.122;19.864;2023-04-01T11:37:57;2.50;;;2.30;;
11141;SDS011;5625;50.122;19.864;2023-04-01T11:40:37;3.73;;;1.87;;
11141;SDS011;5625;50.122;19.864;2023-04-01T11:43:16;2.60;;;2.40;;
11141;SDS011;5625;50.122;19.864;2023-04-01T11:46:00;2.27;;;2.07;;
11141;SDS011;5625;50.122;19.864;2023-04-01T11:48:42;1.93;;;1.77;;
11141;SDS011;5625;50.122;19.864;2023-04-01T11:51:32;2.03;;;1.90;;
11141;SDS011;5625;50.122;19.864;2023-04-01T11:54:14;2.17;;;2.00;;
11141;SDS011;5625;50.122;19.864;2023-04-01T11:56:56;2.40;;;1.93;;
11141;SDS011;5625;50.122;19.864;2023-04-01T11:59:55;3.47;;;2.50;;
11141;SDS011;5625;50.122;19.864;2023-04-01T12:02:42;3.20;;;2.43;;
11141;SDS011;5625;50.122;19.864;2023-04-01T12:05:30;2.73;;;2.07;;
11141;SDS011;5625;50.122;19.864;2023-04-01T12:08:13;2.00;;;1.80;;
11141;SDS011;5625;50.122;19.864;2023-04-01T12:10:52;2.03;;;1.83;;
11141;SDS011;5625;50.122;19.864;2023-04-01T12:13:30;2.77;;;1.40;;
11141;SDS011;5625;50.122;19.864;2023-04-01T12:16:11;2.47;;;1.80;;
11141;SDS011;5625;50.122;19.864;2023-04-01T12:18:51;1.87;;;1.50;;
11141;SDS011;5625;50.122;19.864;2023-04-01T12:21:27;1.97;;;1.40;;
11141;SDS011;5625;50.122;19.864;2023-04-01T12:24:10;2.30;;;1.40;;
11141;SDS011;5625;50.122;19.864;2023-04-01T12:30:05;1.70;;;1.60;;
11141;SDS011;5625;50.122;19.864;2023-04-01T12:32:49;1.63;;;1.53;;
11141;SDS011;5625;50.122;19.864;2023-04-01T12:35:27;2.10;;;1.60;;
11141;SDS011;5625;50.122;19.864;2023-04-01T12:38:12;1.80;;;1.70;;
11141;SDS011;5625;50.122;19.864;2023-04-01T12:41:03;1.90;;;1.80;;
11141;SDS011;5625;50.122;19.864;2023-04-01T12:49:49;1.60;;;1.50;;
11141;SDS011;5625;50.122;19.864;2023-04-01T12:52:25;1.90;;;1.80;;
11141;SDS011;5625;50.122;19.864;2023-04-01T12:55:15;1.77;;;1.67;;
11141;SDS011;5625;50.122;19.864;2023-04-01T12:58:11;2.57;;;1.60;;
11141;SDS011;5625;50.122;19.864;2023-04-01T13:01:10;2.30;;;2.07;;
11141;SDS011;5625;50.122;19.864;2023-04-01T13:03:56;1.87;;;1.77;;
11141;SDS011;5625;50.122;19.864;2023-04-01T13:06:57;1.90;;;1.80;;
11141;SDS011;5625;50.122;19.864;2023-04-01T13:09:45;1.93;;;1.83;;
11141;SDS011;5625;50.122;19.864;2023-04-01T13:12:28;2.13;;;1.93;;
11141;SDS011;5625;50.122;19.864;2023-04-01T13:15:10;2.27;;;1.60;;
11141;SDS011;5625;50.122;19.864;2023-04-01T13:17:53;1.80;;;1.70;;
11141;SDS011;5625;50.122;19.864;2023-04-01T13:20:36;1.67;;;1.40;;
11141;SDS011;5625;50.122;19.864;2023-04-01T13:23:18;2.57;;;2.13;;
11141;SDS011;5625;50.122;19.864;2023-04-01T13:26:00;2.37;;;1.90;;
11141;SDS011;5625;50.122;19.864;2023-04-01T13:28:45;1.97;;;1.87;;
11141;SDS011;5625;50.122;19.864;2023-04-01T13:31:27;3.40;;;2.20;;
11141;SDS011;5625;50.122;19.864;2023-04-01T13:34:08;1.80;;;1.70;;
11141;SDS011;5625;50.122;19.864;2023-04-01T13:36:52;1.70;;;1.60;;
11141;SDS011;5625;50.122;19.864;2023-04-01T13:42:29;2.10;;;2.00;;
11141;SDS011;5625;50.122;19.864;2023-04-01T13:45:11;1.50;;;1.40;;
11141;SDS011;5625;50.122;19.864;2023-04-01T13:47:50;2.13;;;1.33;;
11141;SDS011;5625;50.122;19.864;2023-04-01T13:50:45;1.90;;;1.60;;
11141;SDS011;5625;50.122;19.864;2023-04-01T13:53:34;2.30;;;2.00;;
11141;SDS011;5625;50.122;19.864;2023-04-01T13:56:25;2.03;;;1.90;;
11141;SDS011;5625;50.122;19.864;2023-04-01T13:59:16;1.80;;;1.70;;
11141;SDS011;5625;50.122;19.864;2023-04-01T14:02:17;1.80;;;1.57;;
11141;SDS011;5625;50.122;19.864;2023-04-01T14:05:06;2.20;;;1.90;;
11141;SDS011;5625;50.122;19.864;2023-04-01T14:08:09;2.10;;;1.70;;
11141;SDS011;5625;50.122;19.864;2023-04-01T14:10:50;1.67;;;1.40;;
11141;SDS011;5625;50.122;19.864;2023-04-01T14:13:31;1.67;;;1.37;;
11141;SDS011;5625;50.122;19.864;2023-04-01T14:16:13;2.33;;;1.60;;
11141;SDS011;5625;50.122;19.864;2023-04-01T14:19:02;2.83;;;2.30;;
11141;SDS011;5625;50.122;19.864;2023-04-01T14:21:38;3.27;;;2.57;;
11141;SDS011;5625;50.122;19.864;2023-04-01T14:24:17;2.80;;;1.97;;
11141;SDS011;5625;50.122;19.864;2023-04-01T14:33:01;3.13;;;1.90;;
11141;SDS011;5625;50.122;19.864;2023-04-01T14:35:44;1.60;;;1.50;;
11141;SDS011;5625;50.122;19.864;2023-04-01T14:38:22;1.83;;;1.60;;
11141;SDS011;5625;50.122;19.864;2023-04-01T14:40:56;3.20;;;2.70;;
11141;SDS011;5625;50.122;19.864;2023-04-01T14:43:46;3.87;;;3.20;;
11141;SDS011;5625;50.122;19.864;2023-04-01T14:49:24;4.00;;;3.60;;
11141;SDS011;5625;50.122;19.864;2023-04-01T14:52:05;3.90;;;3.47;;
11141;SDS011;5625;50.122;19.864;2023-04-01T14:54:41;3.87;;;3.47;;
11141;SDS011;5625;50.122;19.864;2023-04-01T14:57:12;7.97;;;5.67;;
11141;SDS011;5625;50.122;19.864;2023-04-01T14:59:46;4.47;;;3.83;;
11141;SDS011;5625;50.122;19.864;2023-04-01T15:02:29;5.20;;;4.70;;
11141;SDS011;5625;50.122;19.864;2023-04-01T15:05:23;4.93;;;4.20;;
11141;SDS011;5625;50.122;19.864;2023-04-01T15:08:03;6.63;;;4.47;;
11141;SDS011;5625;50.122;19.864;2023-04-01T15:13:51;5.50;;;4.10;;
11141;SDS011;5625;50.122;19.864;2023-04-01T15:16:30;5.23;;;3.07;;
11141;SDS011;5625;50.122;19.864;2023-04-01T15:19:10;5.10;;;3.20;;
11141;SDS011;5625;50.122;19.864;2023-04-01T15:21:59;3.33;;;2.63;;
11141;SDS011;5625;50.122;19.864;2023-04-01T15:27:44;3.07;;;2.43;;
11141;SDS011;5625;50.122;19.864;2023-04-01T15:30:21;2.77;;;2.57;;
11141;SDS011;5625;50.122;19.864;2023-04-01T15:33:13;3.13;;;2.73;;
11141;SDS011;5625;50.122;19.864;2023-04-01T15:35:55;4.00;;;3.20;;
11141;SDS011;5625;50.122;19.864;2023-04-01T15:38:31;3.20;;;2.90;;
11141;SDS011;5625;50.122;19.864;2023-04-01T15:41:07;4.13;;;2.70;;
11141;SDS011;5625;50.122;19.864;2023-04-01T15:43:43;4.37;;;3.10;;
11141;SDS011;5625;50.122;19.864;2023-04-01T15:46:19;3.77;;;3.40;;
11141;SDS011;5625;50.122;19.864;2023-04-01T15:49:10;4.30;;;3.50;;
11141;SDS011;5625;50.122;19.864;2023-04-01T15:52:02;5.13;;;3.73;;
11141;SDS011;5625;50.122;19.864;2023-04-01T15:54:57;4.57;;;3.93;;
11141;SDS011;5625;50.122;19.864;2023-04-01T15:57:39;4.30;;;3.83;;
11141;SDS011;5625;50.122;19.864;2023-04-01T16:00:25;5.07;;;4.00;;
11141;SDS011;5625;50.122;19.864;2023-04-01T16:03:06;5.23;;;4.07;;
11141;SDS011;5625;50.122;19.864;2023-04-01T16:05:50;4.37;;;3.67;;
11141;SDS011;5625;50.122;19.864;2023-04-01T16:08:41;4.07;;;3.67;;
11141;SDS011;5625;50.122;19.864;2023-04-01T16:11:25;4.97;;;3.80;;
11141;SDS011;5625;50.122;19.864;2023-04-01T16:14:05;6.13;;;4.30;;
11141;SDS011;5625;50.122;19.864;2023-04-01T16:19:31;5.70;;;4.73;;
11141;SDS011;5625;50.122;19.864;2023-04-01T16:22:07;6.17;;;4.50;;
11141;SDS011;5625;50.122;19.864;2023-04-01T16:24:43;5.97;;;4.37;;
11141;SDS011;5625;50.122;19.864;2023-04-01T16:27:19;5.00;;;4.33;;
11141;SDS011;5625;50.122;19.864;2023-04-01T16:29:57;4.00;;;3.60;;
11141;SDS011;5625;50.122;19.864;2023-04-01T16:32:41;5.47;;;4.37;;
11141;SDS011;5625;50.122;19.864;2023-04-01T16:35:29;6.80;;;5.63;;
11141;SDS011;5625;50.122;19.864;2023-04-01T16:38:09;8.37;;;6.70;;
11141;SDS011;5625;50.122;19.864;2023-04-01T16:40:47;8.60;;;7.40;;
11141;SDS011;5625;50.122;19.864;2023-04-01T16:43:28;8.77;;;7.70;;
11141;SDS011;5625;50.122;19.864;2023-04-01T16:48:59;10.33;;;9.33;;
11141;SDS011;5625;50.122;19.864;2023-04-01T16:51:36;11.07;;;10.07;;
11141;SDS011;5625;50.122;19.864;2023-04-01T16:54:11;11.90;;;10.70;;
11141;SDS011;5625;50.122;19.864;2023-04-01T16:56:45;14.67;;;12.57;;
11141;SDS011;5625;50.122;19.864;2023-04-01T16:59:24;12.83;;;11.53;;
11141;SDS011;5625;50.122;19.864;2023-04-01T17:02:04;13.03;;;11.70;;
11141;SDS011;5625;50.122;19.864;2023-04-01T17:04:39;13.70;;;12.40;;
11141;SDS011;5625;50.122;19.864;2023-04-01T17:07:15;15.60;;;14.10;;
11141;SDS011;5625;50.122;19.864;2023-04-01T17:09:57;15.00;;;13.50;;
11141;SDS011;5625;50.122;19.864;2023-04-01T17:12:35;15.20;;;13.70;;
11141;SDS011;5625;50.122;19.864;2023-04-01T17:15:12;16.47;;;14.77;;
11141;SDS011;5625;50.122;19.864;2023-04-01T17:17:51;15.70;;;13.83;;
11141;SDS011;5625;50.122;19.864;2023-04-01T17:20:28;15.57;;;14.07;;
11141;SDS011;5625;50.122;19.864;2023-04-01T17:23:05;15.40;;;13.97;;
11141;SDS011;5625;50.122;19.864;2023-04-01T17:25:45;14.40;;;13.00;;
11141;SDS011;5625;50.122;19.864;2023-04-01T17:28:28;13.73;;;12.40;;
11141;SDS011;5625;50.122;19.864;2023-04-01T17:31:06;14.50;;;13.00;;